Terminal Aerodrome Forecast
Issued by NWS

Home | Current Version | Previous Version | Text Only | Print | Product List | Glossary On
Versions: 1 2 3 4 5 6 7 8 9 10 11 12
295
FTUS44 KEPZ 131124
TAFTCS
TAF
KTCS 131124Z 1312/1412 31007KT P6SM FEW250
     FM131800 17009KT P6SM SKC
     FM140300 30008KT P6SM FEW250=

USA.gov is the U.S. government's official web portal to all federal, state and local government web resources and services.